Terminal Aerodrome Forecast
Issued by NWS Charleston, WV

Current Version | Previous Version | Text Only | Print | Product List | Glossary Off
Versions: 1 2 3 4 5 6 7 8 9 10 11 12 13 14 15 16 17 18 19 20 21 22 23

000
FTUS41 KRLX 101509 RRA
TAFCRW
TAF
KCRW 101509Z 1015/1112 26007G16KT P6SM OVC025
     FM101600 24008G14KT P6SM BKN050
     FM102200 22007KT P6SM SCT110=

USA.gov is the U.S. government's official web portal to all federal, state and local government web resources and services.